Flight Track Log - Related Links

Times and Time Zones

All times are in EDT time to prevent confusion due to time zone crossing. See the SWA3587 flight status page for this flight to view local times or setup timezone preferences in your user account.

Time Position Orientation Groundspeed Altitude Reporting Facility
EDT Latitude Longitude Course Direction KTS MPH feet Rate Location/Type
Fri 10:28:30 PM 33.9453 -118.4453 263° West 156 180 1,400  Level Los Angeles Center
Fri 10:29:31 PM 33.9381 -118.5169 263° West 200 230 3,500 2,585 Climbing Los Angeles Center
Fri 10:30:33 PM 33.9306 -118.6078 264° West 271 312 6,700 3,387 Climbing Los Angeles Center
Fri 10:31:35 PM 33.9242 -118.7078 266° West 299 344 10,500 2,976 Climbing Los Angeles Center
Fri 10:32:36 PM 33.9164 -118.8075 265° West 327 376 12,800 3,073 Climbing Los Angeles Center
Fri 10:33:38 PM 33.9461 -118.9450 285° West 379 436 16,800 3,387 Climbing Los Angeles Center
Fri 10:34:40 PM 34.0169 -119.0458 310° West 393 452 19,800 2,878 Climbing Los Angeles Center
Fri 10:35:41 PM 34.0886 -119.1531 309° West 411 473 22,700 2,732 Climbing Los Angeles Center
Fri 10:36:43 PM 34.1628 -119.2633 309° West 423 487 25,400 2,382 Climbing Los Angeles Center
Fri 10:37:57 PM 34.2556 -119.3983 310° West 434 499 28,100 1,853 Climbing Los Angeles Center
Fri 10:38:59 PM 34.3347 -119.5181 309° West 453 521 29,600 1,561 Climbing Los Angeles Center
Fri 10:40:00 PM 34.4186 -119.6422 309° West 473 544 31,300 2,000 Climbing Los Angeles Center
Fri 10:41:02 PM 34.5264 -119.7892 312° West 484 557 33,700 1,790 Climbing Los Angeles Center
Fri 10:42:04 PM 34.6236 -119.8653 327° Northwest 490 564 35,000 1,500 Climbing Los Angeles Center
Fri 10:43:06 PM 34.7581 -119.9772 326° Northwest 489 563 36,800 1,452 Climbing Los Angeles Center
Fri 10:44:08 PM 34.8692 -120.0694 326° Northwest 485 558 38,000 585 Climbing Los Angeles Center
Fri 10:45:09 PM 34.9672 -120.1503 326° Northwest 481 554 38,000  Level Los Angeles Center
Fri 10:46:11 PM 35.0986 -120.2589 326° Northwest 481 554 38,000  Level Los Angeles Center
Fri 10:47:13 PM 35.2067 -120.3486 326° Northwest 478 550 38,000  Level Los Angeles Center
Fri 10:48:15 PM 35.3156 -120.4417 325° Northwest 479 551 38,000  Level Los Angeles Center
Fri 10:49:16 PM 35.4236 -120.5333 325° Northwest 484 557 38,000  Level Los Angeles Center
Fri 10:50:18 PM 35.5319 -120.6250 325° Northwest 478 550 38,000 -387 Level Los Angeles Center
Fri 10:51:20 PM 35.6394 -120.7181 325° Northwest 475 547 37,200 -1,394 Descending Los Angeles Center
Fri 10:51:57 PM 35.7067 -120.7742 326° Northwest 471 542 35,700 -2,449 Descending Oakland Center
Fri 10:52:58 PM 35.8153 -120.8650 326° Northwest 472 543 33,200 -2,410 Descending Oakland Center
Fri 10:53:59 PM 35.9419 -120.9728 325° Northwest 462 532 30,800 -2,164 Descending Oakland Center
Fri 10:55:00 PM 36.0422 -121.0600 325° Northwest 448 516 28,800 -2,000 Descending Oakland Center
Fri 10:56:02 PM 36.1394 -121.1433 325° Northwest 431 496 26,700 -1,951 Descending Oakland Center
Fri 10:57:03 PM 36.2314 -121.2222 325° Northwest 410 472 24,800 -1,869 Descending Oakland Center
Fri 10:58:04 PM 36.3189 -121.2975 325° Northwest 390 449 22,900 -1,770 Descending Oakland Center
Fri 10:59:05 PM 36.4042 -121.3722 325° Northwest 378 435 21,200 -1,672 Descending Oakland Center
Fri 11:00:06 PM 36.4906 -121.4453 326° Northwest 378 435 19,500 -2,656 Descending Oakland Center
Fri 11:01:07 PM 36.5922 -121.4911 340° North 392 451 15,800 -3,073 Descending Oakland Center
Fri 11:02:09 PM 36.6986 -121.5283 344° North 397 457 13,200 -2,146 Descending Oakland Center
Fri 11:03:10 PM 36.7983 -121.5664 343° North 381 438 11,400 -1,377 Descending Oakland Center
Fri 11:04:11 PM 36.8961 -121.6108 340° North 334 384 10,400 -1,230 Descending Oakland Center
Fri 11:05:12 PM 36.9703 -121.6406 342° North 300 345 8,900 -1,721 Descending Oakland Center
Fri 11:06:13 PM 37.0444 -121.6694 343° North 285 328 6,900 -1,574 Descending Oakland Center
Fri 11:07:14 PM 37.1175 -121.6969 343° North 277 319 5,700 -1,131 Descending Oakland Center
Fri 11:08:15 PM 37.1842 -121.7283 339° North 267 307 4,600 -1,180 Descending Oakland Center
Fri 11:09:16 PM 37.2289 -121.7867 314° West 246 283 3,300 -1,131 Descending Oakland Center
Fri 11:10:17 PM 37.2686 -121.8306 319° Northwest 214 246 2,300 -885 Descending Oakland Center
Fri 11:11:18 PM 37.3019 -121.8658 320° Northwest 182 209 1,500 -738 Descending Oakland Center
Fri 11:12:19 PM 37.3286 -121.8956 318° Northwest 152 175 800 9,024 Descending Oakland Center
Fri 11:13:21 PM 37.3561 -121.9247 320° Northwest 136 157 20,000 18,581 Climbing Oakland Center
Fri 11:15:00 PM 37.3500 -121.9167 North  Level FlightAware Approximate

Login

Don't have an account? Register now (free) for customized features, flight alerts, and more!